createdAt,value
2023-02-12T00:02:21.328Z,19.67
2023-02-12T00:04:47.937Z,19.68
2023-02-12T00:07:14.366Z,19.67
2023-02-12T00:09:40.780Z,19.68
2023-02-12T00:12:07.356Z,19.67
2023-02-12T00:14:34.798Z,19.67
2023-02-12T00:17:01.246Z,19.66
2023-02-12T00:19:27.648Z,19.68
2023-02-12T00:21:54.096Z,19.69
2023-02-12T00:24:20.505Z,19.69
2023-02-12T00:26:48.475Z,19.69
2023-02-12T00:29:15.019Z,19.69
2023-02-12T00:31:42.365Z,19.68
2023-02-12T00:34:10.325Z,19.69
2023-02-12T00:36:36.951Z,19.68
2023-02-12T00:39:03.871Z,19.69
2023-02-12T00:41:30.740Z,19.69
2023-02-12T00:43:57.598Z,19.68
2023-02-12T00:46:24.166Z,19.68
2023-02-12T00:48:50.563Z,19.69
2023-02-12T00:51:16.961Z,19.68
2023-02-12T00:53:43.379Z,19.67
2023-02-12T00:56:09.779Z,19.67
2023-02-12T00:58:36.362Z,19.68
2023-02-12T01:01:02.820Z,19.67
2023-02-12T01:03:29.183Z,19.67
2023-02-12T01:05:57.358Z,19.66
2023-02-12T01:08:24.115Z,19.67
2023-02-12T01:10:57.798Z,19.66
2023-02-12T01:13:25.594Z,19.64
2023-02-12T01:16:01.509Z,19.66
2023-02-12T01:18:27.900Z,19.68
2023-02-12T01:20:54.255Z,19.66
2023-02-12T01:23:20.682Z,19.67
2023-02-12T01:25:47.185Z,19.67
2023-02-12T01:28:13.675Z,19.67
2023-02-12T01:30:40.153Z,19.66
2023-02-12T01:33:06.525Z,19.67
2023-02-12T01:35:32.947Z,19.67
2023-02-12T01:37:59.678Z,19.67
2023-02-12T01:40:26.163Z,19.67
2023-02-12T01:42:52.781Z,19.67
2023-02-12T01:45:19.132Z,19.66
2023-02-12T01:47:45.570Z,19.68
2023-02-12T01:50:14.572Z,19.68
2023-02-12T01:52:46.643Z,19.69
2023-02-12T01:55:13.999Z,19.68
2023-02-12T01:57:42.696Z,19.71
2023-02-12T02:00:13.264Z,19.71
2023-02-12T02:02:39.928Z,19.72
2023-02-12T02:05:07.020Z,19.73
2023-02-12T02:07:33.673Z,19.72
2023-02-12T02:10:00.116Z,19.73
2023-02-12T02:12:45.380Z,19.73
2023-02-12T02:15:11.775Z,19.73
2023-02-12T02:17:45.491Z,19.73
2023-02-12T02:20:11.840Z,19.73
2023-02-12T02:22:45.013Z,19.72
2023-02-12T02:25:11.411Z,19.72
2023-02-12T02:27:57.450Z,19.73
2023-02-12T02:30:26.954Z,19.73
2023-02-12T02:32:53.319Z,19.74
2023-02-12T02:35:37.179Z,19.75
2023-02-12T02:38:16.032Z,19.74
2023-02-12T02:40:54.802Z,19.75
2023-02-12T02:43:28.739Z,19.74
2023-02-12T02:46:15.503Z,19.75
2023-02-12T02:48:44.662Z,19.76
2023-02-12T02:51:14.326Z,19.76
2023-02-12T02:53:47.183Z,19.76
2023-02-12T02:56:17.796Z,19.77
2023-02-12T02:59:05.415Z,19.76
2023-02-12T03:01:39.065Z,19.76
2023-02-12T03:04:07.150Z,19.76
2023-02-12T03:06:38.815Z,19.75
2023-02-12T03:09:18.174Z,19.76
2023-02-12T03:11:44.844Z,19.76
2023-02-12T03:14:19.025Z,19.76
2023-02-12T03:16:57.528Z,19.77
2023-02-12T03:19:27.058Z,19.76
2023-02-12T03:21:57.195Z,19.76
2023-02-12T03:24:26.556Z,19.73
2023-02-12T03:26:58.083Z,19.71
2023-02-12T03:29:24.477Z,19.70
2023-02-12T03:31:58.933Z,19.70
2023-02-12T03:34:39.607Z,19.67
2023-02-12T03:37:09.645Z,19.64
2023-02-12T03:39:38.838Z,19.64
2023-02-12T03:42:14.102Z,19.61
2023-02-12T03:44:49.851Z,19.59
2023-02-12T03:47:20.660Z,19.57
2023-02-12T03:49:47.064Z,19.56
2023-02-12T03:52:13.458Z,19.55
2023-02-12T03:54:40.151Z,19.54
2023-02-12T03:57:09.026Z,19.54
2023-02-12T03:59:36.409Z,19.51
2023-02-12T04:02:02.965Z,19.51
2023-02-12T04:04:29.561Z,19.49
2023-02-12T04:06:56.351Z,19.47
2023-02-12T04:09:24.521Z,19.46
2023-02-12T04:11:53.651Z,19.45
2023-02-12T04:14:36.230Z,19.44
2023-02-12T04:17:02.722Z,19.42
2023-02-12T04:19:49.648Z,19.41
2023-02-12T04:22:22.056Z,19.41
2023-02-12T04:24:48.415Z,19.40
2023-02-12T04:27:29.435Z,19.35
2023-02-12T04:30:07.129Z,19.31
2023-02-12T04:32:38.728Z,19.27
2023-02-12T04:35:23.934Z,19.25
2023-02-12T04:37:53.780Z,19.19
2023-02-12T04:40:23.082Z,19.18
2023-02-12T04:42:50.806Z,19.15
2023-02-12T04:45:31.216Z,19.12
2023-02-12T04:47:57.618Z,19.12
2023-02-12T04:50:24.245Z,19.11
2023-02-12T04:52:50.730Z,19.08
2023-02-12T04:55:17.155Z,19.07
2023-02-12T04:57:43.888Z,19.04
2023-02-12T05:00:12.561Z,19.02
2023-02-12T05:02:39.066Z,19.00
2023-02-12T05:05:05.717Z,18.98
2023-02-12T05:07:32.150Z,18.96
2023-02-12T05:09:58.631Z,18.95
2023-02-12T05:12:25.049Z,18.93
2023-02-12T05:14:51.405Z,18.92
2023-02-12T05:17:17.776Z,18.91
2023-02-12T05:19:44.113Z,18.89
2023-02-12T05:22:10.531Z,18.88
2023-02-12T05:24:37.138Z,18.86
2023-02-12T05:27:03.573Z,18.85
2023-02-12T05:29:29.920Z,18.84
2023-02-12T05:31:56.484Z,18.84
2023-02-12T05:34:22.875Z,18.82
2023-02-12T05:36:49.299Z,18.81
2023-02-12T05:39:16.724Z,18.81
2023-02-12T05:41:43.150Z,18.80
2023-02-12T05:44:11.946Z,18.78
2023-02-12T05:46:38.510Z,18.78
2023-02-12T05:49:05.106Z,18.78
2023-02-12T05:51:32.173Z,18.76
2023-02-12T05:54:00.303Z,18.77
2023-02-12T05:56:30.716Z,18.77
2023-02-12T05:59:03.314Z,18.78
2023-02-12T06:01:31.515Z,18.78
2023-02-12T06:04:01.687Z,18.78
2023-02-12T06:06:28.894Z,18.78
2023-02-12T06:08:55.629Z,18.77
2023-02-12T06:11:22.283Z,18.78
2023-02-12T06:13:49.304Z,18.76
2023-02-12T06:16:19.772Z,18.74
2023-02-12T06:18:46.303Z,18.73
2023-02-12T06:21:12.891Z,18.73
2023-02-12T06:23:39.443Z,18.72
2023-02-12T06:26:05.794Z,18.71
2023-02-12T06:28:32.288Z,18.70
2023-02-12T06:30:58.932Z,18.70
2023-02-12T06:33:25.377Z,18.71
2023-02-12T06:35:51.736Z,18.69
2023-02-12T06:38:18.085Z,18.67
2023-02-12T06:40:44.519Z,18.67
2023-02-12T06:43:10.907Z,18.67
2023-02-12T06:45:37.397Z,18.66
2023-02-12T06:48:03.910Z,18.65
2023-02-12T06:50:30.693Z,18.64
2023-02-12T06:52:58.561Z,18.64
2023-02-12T06:55:25.321Z,18.63
2023-02-12T06:57:51.696Z,18.63
2023-02-12T07:00:18.522Z,18.61
2023-02-12T07:02:44.908Z,18.61
2023-02-12T07:05:11.461Z,18.60
2023-02-12T07:07:37.910Z,18.58
2023-02-12T07:10:04.394Z,18.59
2023-02-12T07:12:33.155Z,18.60
2023-02-12T07:14:59.595Z,18.61
2023-02-12T07:17:25.952Z,18.61
2023-02-12T07:19:52.299Z,18.60
2023-02-12T07:22:18.714Z,18.61
2023-02-12T07:24:45.955Z,18.60
2023-02-12T07:27:12.298Z,18.59
2023-02-12T07:29:38.684Z,18.60
2023-02-12T07:32:05.726Z,18.60
2023-02-12T07:34:32.418Z,18.61
2023-02-12T07:36:58.893Z,18.60
2023-02-12T07:39:25.330Z,18.60
2023-02-12T07:41:51.678Z,18.59
2023-02-12T07:44:18.056Z,18.60
2023-02-12T07:46:49.062Z,18.60
2023-02-12T07:49:17.258Z,18.60
2023-02-12T07:51:43.745Z,18.60
2023-02-12T07:54:10.577Z,18.60
2023-02-12T07:56:37.630Z,18.60
2023-02-12T07:59:05.785Z,18.60
2023-02-12T08:01:36.666Z,18.60
2023-02-12T08:04:04.797Z,18.60
2023-02-12T08:06:32.252Z,18.60
2023-02-12T08:09:00.135Z,18.59
2023-02-12T08:11:27.251Z,18.59
2023-02-12T08:13:53.739Z,18.59
2023-02-12T08:16:21.337Z,18.59
2023-02-12T08:18:47.847Z,18.60
2023-02-12T08:21:18.795Z,18.60
2023-02-12T08:23:45.552Z,18.60
2023-02-12T08:26:14.141Z,18.61
2023-02-12T08:28:44.832Z,18.63
2023-02-12T08:31:13.500Z,18.68
2023-02-12T08:33:39.879Z,18.70
2023-02-12T08:36:09.511Z,18.71
2023-02-12T08:38:36.327Z,18.82
2023-02-12T08:41:04.723Z,18.86
2023-02-12T08:43:31.537Z,18.90
2023-02-12T08:46:05.182Z,18.94
2023-02-12T08:48:31.894Z,18.98
2023-02-12T08:51:05.422Z,19.01
2023-02-12T08:53:32.017Z,19.04
2023-02-12T08:55:58.400Z,19.08
2023-02-12T08:58:24.914Z,19.13
2023-02-12T09:00:51.306Z,19.15
2023-02-12T09:03:17.872Z,19.19
2023-02-12T09:05:44.303Z,19.21
2023-02-12T09:08:10.644Z,19.27
2023-02-12T09:10:41.067Z,19.29
2023-02-12T09:13:08.083Z,19.34
2023-02-12T09:15:43.876Z,19.36
2023-02-12T09:18:13.967Z,19.39
2023-02-12T09:20:42.460Z,19.42
2023-02-12T09:23:12.826Z,19.42
2023-02-12T09:25:40.399Z,19.45
2023-02-12T09:28:06.779Z,19.47
2023-02-12T09:30:33.242Z,19.48
2023-02-12T09:32:59.745Z,19.50
2023-02-12T09:35:26.156Z,19.50
2023-02-12T09:37:53.283Z,19.52
2023-02-12T09:40:28.339Z,19.54
2023-02-12T09:42:57.807Z,19.55
2023-02-12T09:45:27.106Z,19.57
2023-02-12T09:48:00.066Z,19.59
2023-02-12T09:50:45.023Z,19.65
2023-02-12T09:53:14.794Z,19.70
2023-02-12T09:55:41.354Z,19.74
2023-02-12T09:58:14.409Z,19.73
2023-02-12T10:00:40.866Z,19.72
2023-02-12T10:03:12.912Z,19.68
2023-02-12T10:05:49.323Z,19.64
2023-02-12T10:08:34.299Z,19.58
2023-02-12T10:11:06.803Z,19.53
2023-02-12T10:13:42.256Z,19.47
2023-02-12T10:16:18.047Z,19.43
2023-02-12T10:18:56.827Z,19.37
2023-02-12T10:21:23.222Z,19.34
2023-02-12T10:24:01.687Z,19.28
2023-02-12T10:26:37.752Z,19.23
2023-02-12T10:29:16.167Z,19.22
2023-02-12T10:31:45.744Z,19.21
2023-02-12T10:34:20.005Z,19.16
2023-02-12T10:36:48.120Z,19.16
2023-02-12T10:39:22.763Z,19.17
2023-02-12T10:41:55.055Z,19.19
2023-02-12T10:44:21.561Z,19.21
2023-02-12T10:46:48.118Z,19.21
2023-02-12T10:49:16.573Z,19.22
2023-02-12T10:51:46.728Z,19.25
2023-02-12T10:54:33.172Z,19.26
2023-02-12T10:57:06.096Z,19.27
2023-02-12T10:59:34.252Z,19.29
2023-02-12T11:02:01.684Z,19.30
2023-02-12T11:04:29.865Z,19.32
2023-02-12T11:07:06.071Z,19.32
2023-02-12T11:09:40.693Z,19.34
2023-02-12T11:12:17.572Z,19.35
2023-02-12T11:14:48.704Z,19.36
2023-02-12T11:17:23.256Z,19.37
2023-02-12T11:20:02.576Z,19.37
2023-02-12T11:22:29.111Z,19.38
2023-02-12T11:25:00.454Z,19.38
2023-02-12T11:27:28.847Z,19.39
2023-02-12T11:30:10.805Z,19.38
2023-02-12T11:32:37.378Z,19.40
2023-02-12T11:35:05.650Z,19.44
2023-02-12T11:37:33.448Z,19.43
2023-02-12T11:39:59.918Z,19.43
2023-02-12T11:42:26.555Z,19.43
2023-02-12T11:44:54.990Z,19.44
2023-02-12T11:47:23.867Z,19.46
2023-02-12T11:49:53.660Z,19.44
2023-02-12T11:52:25.071Z,19.46
2023-02-12T11:54:53.342Z,19.46
2023-02-12T11:57:38.784Z,19.46
2023-02-12T12:00:11.197Z,19.46
2023-02-12T12:02:39.564Z,19.47
2023-02-12T12:05:12.135Z,19.46
2023-02-12T12:07:41.402Z,19.46
2023-02-12T12:10:12.545Z,19.48
2023-02-12T12:12:42.072Z,19.48
2023-02-12T12:15:30.328Z,19.49
2023-02-12T12:18:19.897Z,19.48
2023-02-12T12:20:55.350Z,19.48
2023-02-12T12:23:40.073Z,19.49
2023-02-12T12:26:13.188Z,19.48
2023-02-12T12:28:51.221Z,19.50
2023-02-12T12:31:20.756Z,19.50
2023-02-12T12:34:08.633Z,19.49
2023-02-12T12:36:53.870Z,19.50
2023-02-12T12:39:23.233Z,19.50
2023-02-12T12:42:18.636Z,19.50
2023-02-12T12:44:57.307Z,19.52
2023-02-12T12:47:35.925Z,19.51
2023-02-12T12:50:14.706Z,19.52
2023-02-12T12:52:59.836Z,19.53
2023-02-12T12:55:44.791Z,19.53
2023-02-12T12:58:23.563Z,19.53
2023-02-12T13:00:50.126Z,19.55
2023-02-12T13:03:24.353Z,19.55
2023-02-12T13:06:26.375Z,19.56
2023-02-12T13:09:02.915Z,19.57
2023-02-12T13:11:35.394Z,19.57
2023-02-12T13:14:08.680Z,19.58
2023-02-12T13:16:58.378Z,19.59
2023-02-12T13:19:32.717Z,19.59
2023-02-12T13:22:02.234Z,19.60
2023-02-12T13:24:37.892Z,19.62
2023-02-12T13:27:12.838Z,19.62
2023-02-12T13:29:43.035Z,19.63
2023-02-12T13:32:29.817Z,19.63
2023-02-12T13:34:57.131Z,19.63
2023-02-12T13:37:32.752Z,19.63
2023-02-12T13:40:01.588Z,19.65
2023-02-12T13:42:34.223Z,19.65
2023-02-12T13:45:16.468Z,19.65
2023-02-12T13:47:43.359Z,19.65
2023-02-12T13:50:15.931Z,19.65
2023-02-12T13:52:55.604Z,19.65
2023-02-12T13:55:30.136Z,19.66
2023-02-12T13:58:16.852Z,19.65
2023-02-12T14:00:52.129Z,19.65
2023-02-12T14:03:24.534Z,19.65
2023-02-12T14:06:07.679Z,19.64
2023-02-12T14:08:36.539Z,19.65
2023-02-12T14:11:05.244Z,19.65
2023-02-12T14:13:36.922Z,19.66
2023-02-12T14:16:36.742Z,19.67
2023-02-12T14:19:23.848Z,19.65
2023-02-12T14:21:50.630Z,19.64
2023-02-12T14:24:35.935Z,19.64
2023-02-12T14:27:06.121Z,19.64
2023-02-12T14:29:32.820Z,19.64
2023-02-12T14:31:59.541Z,19.65
2023-02-12T14:34:32.132Z,19.64
2023-02-12T14:37:10.623Z,19.64
2023-02-12T14:39:37.114Z,19.64
2023-02-12T14:42:09.355Z,19.63
2023-02-12T14:44:38.715Z,19.64
2023-02-12T14:47:18.413Z,19.64
2023-02-12T14:49:54.944Z,19.64
2023-02-12T14:52:30.940Z,19.64
2023-02-12T14:55:05.517Z,19.64
2023-02-12T14:57:32.183Z,19.64
2023-02-12T15:00:17.440Z,19.63
2023-02-12T15:02:53.270Z,19.64
2023-02-12T15:05:24.598Z,19.67
2023-02-12T15:07:56.089Z,19.66
2023-02-12T15:10:24.523Z,19.66
2023-02-12T15:13:01.792Z,19.66
2023-02-12T15:15:51.631Z,19.66
2023-02-12T15:18:27.470Z,19.67
2023-02-12T15:21:04.088Z,19.66
2023-02-12T15:23:38.912Z,19.64
2023-02-12T15:26:06.554Z,19.65
2023-02-12T15:28:35.435Z,19.65
2023-02-12T15:31:03.045Z,19.66
2023-02-12T15:33:33.686Z,19.65
2023-02-12T15:36:01.140Z,19.66
2023-02-12T15:38:38.149Z,19.65
2023-02-12T15:41:05.595Z,19.65
2023-02-12T15:43:34.955Z,19.65
2023-02-12T15:46:07.612Z,19.65
2023-02-12T15:48:35.503Z,19.65
2023-02-12T15:51:04.931Z,19.64
2023-02-12T15:53:31.466Z,19.65
2023-02-12T15:55:58.952Z,19.64
2023-02-12T15:58:29.696Z,19.64
2023-02-12T16:01:00.430Z,19.63
2023-02-12T16:03:28.542Z,19.63
2023-02-12T16:05:57.907Z,19.64
2023-02-12T16:08:25.135Z,19.63
2023-02-12T16:10:53.175Z,19.63
2023-02-12T16:13:24.683Z,19.63
2023-02-12T16:16:04.819Z,19.61
2023-02-12T16:18:31.984Z,19.61
2023-02-12T16:21:02.870Z,19.62
2023-02-12T16:23:29.413Z,19.62
2023-02-12T16:25:56.330Z,19.60
2023-02-12T16:28:27.326Z,19.61
2023-02-12T16:31:06.475Z,19.61
2023-02-12T16:33:39.108Z,19.61
2023-02-12T16:36:07.619Z,19.61
2023-02-12T16:38:42.785Z,19.61
2023-02-12T16:41:20.919Z,19.60
2023-02-12T16:43:48.925Z,19.59
2023-02-12T16:46:16.903Z,19.60
2023-02-12T16:48:49.317Z,19.59
2023-02-12T16:51:21.922Z,19.59
2023-02-12T16:53:50.096Z,19.58
2023-02-12T16:56:18.477Z,19.59
2023-02-12T16:58:46.174Z,19.58
2023-02-12T17:01:16.131Z,19.58
2023-02-12T17:03:43.323Z,19.58
2023-02-12T17:06:10.314Z,19.58
2023-02-12T17:08:36.689Z,19.59
2023-02-12T17:11:03.142Z,19.59
2023-02-12T17:13:29.637Z,19.57
2023-02-12T17:15:57.511Z,19.59
2023-02-12T17:18:25.031Z,19.58
2023-02-12T17:20:56.319Z,19.58
2023-02-12T17:23:23.606Z,19.58
2023-02-12T17:25:50.090Z,19.58
2023-02-12T17:28:16.767Z,19.58
2023-02-12T17:30:43.475Z,19.57
2023-02-12T17:33:10.021Z,19.58
2023-02-12T17:35:37.604Z,19.57
2023-02-12T17:38:04.305Z,19.57
2023-02-12T17:40:30.648Z,19.58
2023-02-12T17:42:58.276Z,19.58
2023-02-12T17:45:24.618Z,19.57
2023-02-12T17:47:51.036Z,19.58
2023-02-12T17:50:17.978Z,19.57
2023-02-12T17:52:44.784Z,19.57
2023-02-12T17:55:13.768Z,19.57
2023-02-12T17:57:40.244Z,19.57
2023-02-12T18:00:08.818Z,19.57
2023-02-12T18:02:35.253Z,19.58
2023-02-12T18:05:01.644Z,19.57
2023-02-12T18:07:29.043Z,19.57
2023-02-12T18:09:55.527Z,19.57
2023-02-12T18:12:21.936Z,19.58
2023-02-12T18:14:48.346Z,19.58
2023-02-12T18:17:14.749Z,19.58
2023-02-12T18:19:41.170Z,19.57
2023-02-12T18:22:07.609Z,19.56
2023-02-12T18:24:35.168Z,19.59
2023-02-12T18:27:01.658Z,19.58
2023-02-12T18:29:28.022Z,19.58
2023-02-12T18:31:54.838Z,19.58
2023-02-12T18:34:21.318Z,19.58
2023-02-12T18:36:47.789Z,19.59
2023-02-12T18:39:14.324Z,19.58
2023-02-12T18:41:40.770Z,19.58
2023-02-12T18:44:07.157Z,19.59
2023-02-12T18:46:33.615Z,19.58
2023-02-12T18:49:00.624Z,19.59
2023-02-12T18:51:28.742Z,19.59
2023-02-12T18:54:02.803Z,19.58
2023-02-12T18:56:30.122Z,19.57
2023-02-12T18:58:57.649Z,19.57
2023-02-12T19:01:24.632Z,19.54
2023-02-12T19:03:55.495Z,19.58
2023-02-12T19:06:22.572Z,19.58
2023-02-12T19:08:48.934Z,19.58
2023-02-12T19:11:15.829Z,19.58
2023-02-12T19:13:42.270Z,19.58
2023-02-12T19:16:09.755Z,19.59
2023-02-12T19:18:36.202Z,19.57
2023-02-12T19:21:10.245Z,19.58
2023-02-12T19:23:36.872Z,19.58
2023-02-12T19:26:04.357Z,19.57
2023-02-12T19:28:30.940Z,19.58
2023-02-12T19:30:57.835Z,19.58
2023-02-12T19:33:24.509Z,19.58
2023-02-12T19:35:51.121Z,19.57
2023-02-12T19:38:18.951Z,19.57
2023-02-12T19:40:45.358Z,19.58
2023-02-12T19:43:11.878Z,19.57
2023-02-12T19:45:38.340Z,19.57
2023-02-12T19:48:04.888Z,19.56
2023-02-12T19:50:32.462Z,19.58
2023-02-12T19:53:00.330Z,19.57
2023-02-12T19:55:26.727Z,19.57
2023-02-12T19:57:53.162Z,19.57
2023-02-12T20:00:19.767Z,19.58
2023-02-12T20:02:46.191Z,19.57
2023-02-12T20:05:12.705Z,19.57
2023-02-12T20:07:39.215Z,19.58
2023-02-12T20:10:06.078Z,19.56
2023-02-12T20:12:32.500Z,19.57
2023-02-12T20:15:02.635Z,19.55
2023-02-12T20:17:29.098Z,19.57
2023-02-12T20:19:55.578Z,19.57
2023-02-12T20:22:24.346Z,19.57
2023-02-12T20:24:51.084Z,19.56
2023-02-12T20:27:17.429Z,19.56
2023-02-12T20:29:43.876Z,19.57
2023-02-12T20:32:11.068Z,19.57
2023-02-12T20:34:50.166Z,19.58
2023-02-12T20:37:18.324Z,19.57
2023-02-12T20:39:44.756Z,19.56
2023-02-12T20:42:12.312Z,19.56
2023-02-12T20:44:38.742Z,19.56
2023-02-12T20:47:05.238Z,19.57
2023-02-12T20:49:31.775Z,19.56
2023-02-12T20:51:58.300Z,19.56
2023-02-12T20:54:25.487Z,19.57
2023-02-12T20:56:51.997Z,19.56
2023-02-12T20:59:18.906Z,19.57
2023-02-12T21:01:45.338Z,19.56
2023-02-12T21:04:15.121Z,19.56
2023-02-12T21:06:42.061Z,19.57
2023-02-12T21:09:12.180Z,19.57
2023-02-12T21:11:39.962Z,19.56
2023-02-12T21:14:23.993Z,19.56
2023-02-12T21:16:51.805Z,19.56
2023-02-12T21:19:18.930Z,19.56
2023-02-12T21:21:45.681Z,19.56
2023-02-12T21:24:16.345Z,19.56
2023-02-12T21:26:43.152Z,19.57
2023-02-12T21:29:09.744Z,19.57
2023-02-12T21:31:37.658Z,19.57
2023-02-12T21:34:05.193Z,19.56
2023-02-12T21:36:35.882Z,19.57
2023-02-12T21:39:02.767Z,19.56
2023-02-12T21:41:30.422Z,19.56
2023-02-12T21:44:00.663Z,19.56
2023-02-12T21:46:27.563Z,19.56
2023-02-12T21:48:54.575Z,19.55
2023-02-12T21:51:20.960Z,19.53
2023-02-12T21:53:47.875Z,19.49
2023-02-12T21:56:14.738Z,19.48
2023-02-12T21:58:41.475Z,19.45
2023-02-12T22:01:09.181Z,19.45
2023-02-12T22:03:36.193Z,19.45
2023-02-12T22:06:03.549Z,19.42
2023-02-12T22:08:30.189Z,19.39
2023-02-12T22:10:56.830Z,19.36
2023-02-12T22:13:23.528Z,19.34
2023-02-12T22:15:49.879Z,19.31
2023-02-12T22:18:16.279Z,19.30
2023-02-12T22:20:42.692Z,19.27
2023-02-12T22:23:10.510Z,19.26
2023-02-12T22:25:36.978Z,19.24
2023-02-12T22:28:03.469Z,19.22
2023-02-12T22:30:29.899Z,19.20
2023-02-12T22:32:56.249Z,19.20
2023-02-12T22:35:22.662Z,19.18
2023-02-12T22:37:49.097Z,19.16
2023-02-12T22:40:15.472Z,19.15
2023-02-12T22:42:41.898Z,19.14
2023-02-12T22:45:08.607Z,19.14
2023-02-12T22:47:35.032Z,19.13
2023-02-12T22:50:01.590Z,19.12
2023-02-12T22:52:28.768Z,19.12
2023-02-12T22:54:55.294Z,19.10
2023-02-12T22:57:21.691Z,19.09
2023-02-12T22:59:49.151Z,19.09
2023-02-12T23:02:15.803Z,19.09
2023-02-12T23:04:42.382Z,19.08
2023-02-12T23:07:08.840Z,19.06
2023-02-12T23:09:35.551Z,19.06
2023-02-12T23:12:01.988Z,19.06
2023-02-12T23:14:28.319Z,19.07
2023-02-12T23:16:54.806Z,19.06
2023-02-12T23:19:21.320Z,19.05
2023-02-12T23:21:47.875Z,19.04
2023-02-12T23:24:14.923Z,19.04
2023-02-12T23:26:41.419Z,19.01
2023-02-12T23:29:08.101Z,19.02
2023-02-12T23:31:34.562Z,19.02
2023-02-12T23:34:01.089Z,19.02
2023-02-12T23:36:28.304Z,19.01
2023-02-12T23:38:54.871Z,19.02
2023-02-12T23:41:21.285Z,19.01
2023-02-12T23:43:47.687Z,19.02
2023-02-12T23:46:14.216Z,19.00
2023-02-12T23:48:41.229Z,19.02
2023-02-12T23:51:07.631Z,19.00
2023-02-12T23:53:34.099Z,18.99
2023-02-12T23:56:00.502Z,18.98
2023-02-12T23:58:26.885Z,18.97
